Terminal Aerodrome Forecast
Issued by NWS Cleveland, OH

Home | Current Version | Previous Version | Graphics & Text | Print | Product List | Glossary Off
Versions: 1 2 3 4 5 6 7 8 9 10 11 12 13 14 15 16

593
FTUS41 KCLE 211132
TAFMFD
TAF
KMFD 211132Z 2112/2212 19003KT P6SM SCT250
      TEMPO 2112/2113 3SM BR SCT005
     FM211500 16003KT P6SM SCT250
     FM211800 15004KT P6SM SCT045
     FM220000 10003KT P6SM FEW250
     FM220900 15003KT 4SM BR FEW250=

USA.gov is the U.S. government's official web portal to all federal, state and local government web resources and services.